Long Lake, Minnesota
Current Conditions -  °F | °C
As of 1:53 AM on Thursday 27 Nov 2014 (Local Time) from KMIC Reporting Station
Clear Clear  
Wind Chill: -9°   Ceiling: Unl
Heat Index:   Visibility: 10mi
Dew Point: -3°   Wind: 10mph
Humidity: 67%   Direction: 340°NNW
Pressure: 30.45"   Gusts: NA
Location:  44.99°N, 93.57°W
Report Text: KMIC 270753Z AUTO 34009KT 10SM CLR M14/M19 A3045 RMK AO2 SLP328 T11441194
Loading
Personal Weather Stations






























Interactive Weather Map New forecast layout! Learn more

10-Day Weather Forecast

Advertisements
Track Severe Weather on mobile